sensor_id;sensor_type;location;lat;lon;timestamp;temperature;humidity
50969;DHT22;36982;51.474;7.228;2022-07-15T00:02:10;16.10;99.90
50969;DHT22;36982;51.474;7.228;2022-07-15T00:04:37;16.10;99.90
50969;DHT22;36982;51.474;7.228;2022-07-15T00:07:03;16.10;99.90
50969;DHT22;36982;51.474;7.228;2022-07-15T00:09:28;16.10;99.90
50969;DHT22;36982;51.474;7.228;2022-07-15T00:12:13;16.10;99.90
50969;DHT22;36982;51.474;7.228;2022-07-15T00:14:39;16.10;99.90
50969;DHT22;36982;51.474;7.228;2022-07-15T00:17:05;16.20;99.90
50969;DHT22;36982;51.474;7.228;2022-07-15T00:19:32;16.20;99.90
50969;DHT22;36982;51.474;7.228;2022-07-15T00:21:58;16.30;99.90
50969;DHT22;36982;51.474;7.228;2022-07-15T00:24:24;16.40;99.90
50969;DHT22;36982;51.474;7.228;2022-07-15T00:26:49;16.50;99.90
50969;DHT22;36982;51.474;7.228;2022-07-15T00:29:15;16.50;99.90
50969;DHT22;36982;51.474;7.228;2022-07-15T00:31:41;16.30;99.90
50969;DHT22;36982;51.474;7.228;2022-07-15T00:34:06;16.20;99.90
50969;DHT22;36982;51.474;7.228;2022-07-15T00:36:32;16.30;99.90
50969;DHT22;36982;51.474;7.228;2022-07-15T00:38:58;16.30;99.90
50969;DHT22;36982;51.474;7.228;2022-07-15T00:41:23;16.30;99.90
50969;DHT22;36982;51.474;7.228;2022-07-15T00:43:50;16.20;99.90
50969;DHT22;36982;51.474;7.228;2022-07-15T00:46:21;16.10;99.90
50969;DHT22;36982;51.474;7.228;2022-07-15T00:48:46;16.20;99.90
50969;DHT22;36982;51.474;7.228;2022-07-15T00:51:12;16.10;99.90
50969;DHT22;36982;51.474;7.228;2022-07-15T00:53:38;15.90;99.90
50969;DHT22;36982;51.474;7.228;2022-07-15T00:56:07;15.80;99.90
50969;DHT22;36982;51.474;7.228;2022-07-15T00:58:37;15.90;99.90
50969;DHT22;36982;51.474;7.228;2022-07-15T01:01:03;15.90;99.90
50969;DHT22;36982;51.474;7.228;2022-07-15T01:03:31;15.80;99.90
50969;DHT22;36982;51.474;7.228;2022-07-15T01:05:57;15.80;99.90
50969;DHT22;36982;51.474;7.228;2022-07-15T01:08:23;15.70;99.90
50969;DHT22;36982;51.474;7.228;2022-07-15T01:10:49;15.60;99.90
50969;DHT22;36982;51.474;7.228;2022-07-15T01:13:16;15.70;99.90
50969;DHT22;36982;51.474;7.228;2022-07-15T01:15:43;15.70;99.90
50969;DHT22;36982;51.474;7.228;2022-07-15T01:18:09;15.80;99.90
50969;DHT22;36982;51.474;7.228;2022-07-15T01:20:38;15.60;99.90
50969;DHT22;36982;51.474;7.228;2022-07-15T01:23:04;15.50;99.90
50969;DHT22;36982;51.474;7.228;2022-07-15T01:25:30;15.50;99.90
50969;DHT22;36982;51.474;7.228;2022-07-15T01:27:56;15.60;99.90
50969;DHT22;36982;51.474;7.228;2022-07-15T01:30:22;15.80;99.90
50969;DHT22;36982;51.474;7.228;2022-07-15T01:32:48;15.90;99.90
50969;DHT22;36982;51.474;7.228;2022-07-15T01:35:14;15.90;99.90
50969;DHT22;36982;51.474;7.228;2022-07-15T01:37:39;15.90;99.90
50969;DHT22;36982;51.474;7.228;2022-07-15T01:40:06;15.90;99.90
50969;DHT22;36982;51.474;7.228;2022-07-15T01:42:33;15.90;99.90
50969;DHT22;36982;51.474;7.228;2022-07-15T01:44:58;16.00;99.90
50969;DHT22;36982;51.474;7.228;2022-07-15T01:47:24;16.10;99.90
50969;DHT22;36982;51.474;7.228;2022-07-15T01:49:50;16.10;99.90
50969;DHT22;36982;51.474;7.228;2022-07-15T01:52:15;16.00;99.90
50969;DHT22;36982;51.474;7.228;2022-07-15T01:54:41;16.00;99.90
50969;DHT22;36982;51.474;7.228;2022-07-15T01:57:07;15.90;99.90
50969;DHT22;36982;51.474;7.228;2022-07-15T01:59:32;15.90;99.90
50969;DHT22;36982;51.474;7.228;2022-07-15T02:01:58;16.00;99.90
50969;DHT22;36982;51.474;7.228;2022-07-15T02:04:24;15.90;99.90
50969;DHT22;36982;51.474;7.228;2022-07-15T02:06:50;15.80;99.90
50969;DHT22;36982;51.474;7.228;2022-07-15T02:09:16;15.80;99.90
50969;DHT22;36982;51.474;7.228;2022-07-15T02:11:42;15.70;99.90
50969;DHT22;36982;51.474;7.228;2022-07-15T02:14:09;15.70;99.90
50969;DHT22;36982;51.474;7.228;2022-07-15T02:16:34;15.60;99.90
50969;DHT22;36982;51.474;7.228;2022-07-15T02:19:00;15.70;99.90
50969;DHT22;36982;51.474;7.228;2022-07-15T02:21:27;15.70;99.90
50969;DHT22;36982;51.474;7.228;2022-07-15T02:23:53;15.60;99.90
50969;DHT22;36982;51.474;7.228;2022-07-15T02:26:20;15.50;99.90
50969;DHT22;36982;51.474;7.228;2022-07-15T02:28:46;15.40;99.90
50969;DHT22;36982;51.474;7.228;2022-07-15T02:31:11;15.40;99.90
50969;DHT22;36982;51.474;7.228;2022-07-15T02:33:38;15.10;99.90
50969;DHT22;36982;51.474;7.228;2022-07-15T02:36:04;15.10;99.90
50969;DHT22;36982;51.474;7.228;2022-07-15T02:38:30;15.10;99.90
50969;DHT22;36982;51.474;7.228;2022-07-15T02:40:55;15.00;99.90
50969;DHT22;36982;51.474;7.228;2022-07-15T02:43:21;14.90;99.90
50969;DHT22;36982;51.474;7.228;2022-07-15T02:45:47;14.80;99.90
50969;DHT22;36982;51.474;7.228;2022-07-15T02:48:13;14.70;99.90
50969;DHT22;36982;51.474;7.228;2022-07-15T02:50:40;14.60;99.90
50969;DHT22;36982;51.474;7.228;2022-07-15T02:53:06;14.60;99.90
50969;DHT22;36982;51.474;7.228;2022-07-15T02:55:32;14.70;99.90
50969;DHT22;36982;51.474;7.228;2022-07-15T02:57:58;14.80;99.90
50969;DHT22;36982;51.474;7.228;2022-07-15T03:00:23;14.70;99.90
50969;DHT22;36982;51.474;7.228;2022-07-15T03:02:49;14.80;99.90
50969;DHT22;36982;51.474;7.228;2022-07-15T03:05:15;14.70;99.90
50969;DHT22;36982;51.474;7.228;2022-07-15T03:07:43;14.70;99.90
50969;DHT22;36982;51.474;7.228;2022-07-15T03:10:10;14.60;99.90
50969;DHT22;36982;51.474;7.228;2022-07-15T03:12:36;14.60;99.90
50969;DHT22;36982;51.474;7.228;2022-07-15T03:15:03;14.60;99.90
50969;DHT22;36982;51.474;7.228;2022-07-15T03:17:29;14.60;99.90
50969;DHT22;36982;51.474;7.228;2022-07-15T03:19:54;14.60;99.90
50969;DHT22;36982;51.474;7.228;2022-07-15T03:22:23;14.60;99.90
50969;DHT22;36982;51.474;7.228;2022-07-15T03:24:49;14.60;99.90
50969;DHT22;36982;51.474;7.228;2022-07-15T03:27:16;14.60;99.90
50969;DHT22;36982;51.474;7.228;2022-07-15T03:29:42;14.70;99.90
50969;DHT22;36982;51.474;7.228;2022-07-15T03:32:08;14.60;99.90
50969;DHT22;36982;51.474;7.228;2022-07-15T03:34:36;14.50;99.90
50969;DHT22;36982;51.474;7.228;2022-07-15T03:37:01;14.40;99.90
50969;DHT22;36982;51.474;7.228;2022-07-15T03:39:27;14.40;99.90
50969;DHT22;36982;51.474;7.228;2022-07-15T03:41:53;14.50;99.90
50969;DHT22;36982;51.474;7.228;2022-07-15T03:44:18;14.50;99.90
50969;DHT22;36982;51.474;7.228;2022-07-15T03:46:44;14.40;99.90
50969;DHT22;36982;51.474;7.228;2022-07-15T03:49:14;14.50;99.90
50969;DHT22;36982;51.474;7.228;2022-07-15T03:51:40;14.50;99.90
50969;DHT22;36982;51.474;7.228;2022-07-15T03:54:06;14.30;99.90
50969;DHT22;36982;51.474;7.228;2022-07-15T03:56:35;14.30;99.90
50969;DHT22;36982;51.474;7.228;2022-07-15T03:59:01;14.30;99.90
50969;DHT22;36982;51.474;7.228;2022-07-15T04:01:26;14.50;99.90
50969;DHT22;36982;51.474;7.228;2022-07-15T04:03:53;14.40;99.90
50969;DHT22;36982;51.474;7.228;2022-07-15T04:06:19;14.30;99.90
50969;DHT22;36982;51.474;7.228;2022-07-15T04:08:45;14.30;99.90
50969;DHT22;36982;51.474;7.228;2022-07-15T04:11:12;14.40;99.90
50969;DHT22;36982;51.474;7.228;2022-07-15T04:13:38;14.50;99.90
50969;DHT22;36982;51.474;7.228;2022-07-15T04:16:05;14.60;99.90
50969;DHT22;36982;51.474;7.228;2022-07-15T04:18:31;14.60;99.90
50969;DHT22;36982;51.474;7.228;2022-07-15T04:20:57;14.60;99.90
50969;DHT22;36982;51.474;7.228;2022-07-15T04:23:22;14.60;99.90
50969;DHT22;36982;51.474;7.228;2022-07-15T04:25:49;14.60;99.90
50969;DHT22;36982;51.474;7.228;2022-07-15T04:28:20;14.60;99.90
50969;DHT22;36982;51.474;7.228;2022-07-15T04:30:46;14.60;99.90
50969;DHT22;36982;51.474;7.228;2022-07-15T04:33:11;14.50;99.90
50969;DHT22;36982;51.474;7.228;2022-07-15T04:35:37;14.40;99.90
50969;DHT22;36982;51.474;7.228;2022-07-15T04:38:04;14.60;99.90
50969;DHT22;36982;51.474;7.228;2022-07-15T04:40:30;14.50;99.90
50969;DHT22;36982;51.474;7.228;2022-07-15T04:42:57;14.80;99.90
50969;DHT22;36982;51.474;7.228;2022-07-15T04:45:24;14.60;99.90
50969;DHT22;36982;51.474;7.228;2022-07-15T04:47:49;14.70;99.90
50969;DHT22;36982;51.474;7.228;2022-07-15T04:50:15;14.70;99.90
50969;DHT22;36982;51.474;7.228;2022-07-15T04:52:59;14.80;99.90
50969;DHT22;36982;51.474;7.228;2022-07-15T04:55:25;14.80;99.90
50969;DHT22;36982;51.474;7.228;2022-07-15T04:57:52;14.90;99.90
50969;DHT22;36982;51.474;7.228;2022-07-15T05:00:18;14.90;99.90
50969;DHT22;36982;51.474;7.228;2022-07-15T05:02:44;14.90;99.90
50969;DHT22;36982;51.474;7.228;2022-07-15T05:05:09;14.90;99.90
50969;DHT22;36982;51.474;7.228;2022-07-15T05:07:35;14.70;99.90
50969;DHT22;36982;51.474;7.228;2022-07-15T05:10:01;14.70;99.90
50969;DHT22;36982;51.474;7.228;2022-07-15T05:12:26;14.90;99.90
50969;DHT22;36982;51.474;7.228;2022-07-15T05:14:52;15.00;99.90
50969;DHT22;36982;51.474;7.228;2022-07-15T05:17:17;15.10;99.90
50969;DHT22;36982;51.474;7.228;2022-07-15T05:19:43;15.20;99.90
50969;DHT22;36982;51.474;7.228;2022-07-15T05:22:08;15.30;99.90
50969;DHT22;36982;51.474;7.228;2022-07-15T05:24:34;15.40;99.90
50969;DHT22;36982;51.474;7.228;2022-07-15T05:27:00;15.80;99.90
50969;DHT22;36982;51.474;7.228;2022-07-15T05:29:26;16.80;99.90
50969;DHT22;36982;51.474;7.228;2022-07-15T05:31:51;17.60;99.90
50969;DHT22;36982;51.474;7.228;2022-07-15T05:34:17;18.30;99.90
50969;DHT22;36982;51.474;7.228;2022-07-15T05:36:43;19.00;99.90
50969;DHT22;36982;51.474;7.228;2022-07-15T05:39:09;19.80;99.90
50969;DHT22;36982;51.474;7.228;2022-07-15T05:41:35;20.20;99.80
50969;DHT22;36982;51.474;7.228;2022-07-15T05:44:00;20.70;98.80
50969;DHT22;36982;51.474;7.228;2022-07-15T05:46:26;21.30;98.20
50969;DHT22;36982;51.474;7.228;2022-07-15T05:48:52;21.90;97.00
50969;DHT22;36982;51.474;7.228;2022-07-15T05:51:18;22.10;96.50
50969;DHT22;36982;51.474;7.228;2022-07-15T05:53:44;22.50;95.80
50969;DHT22;36982;51.474;7.228;2022-07-15T05:56:09;22.50;95.30
50969;DHT22;36982;51.474;7.228;2022-07-15T05:58:35;22.50;95.00
50969;DHT22;36982;51.474;7.228;2022-07-15T06:01:02;22.80;94.70
50969;DHT22;36982;51.474;7.228;2022-07-15T06:03:27;23.10;93.90
50969;DHT22;36982;51.474;7.228;2022-07-15T06:05:53;23.10;94.20
50969;DHT22;36982;51.474;7.228;2022-07-15T06:08:26;23.00;94.00
50969;DHT22;36982;51.474;7.228;2022-07-15T06:10:51;23.00;93.60
50969;DHT22;36982;51.474;7.228;2022-07-15T06:13:17;23.20;93.40
50969;DHT22;36982;51.474;7.228;2022-07-15T06:15:44;23.20;92.80
50969;DHT22;36982;51.474;7.228;2022-07-15T06:18:10;23.00;93.50
50969;DHT22;36982;51.474;7.228;2022-07-15T06:20:36;23.20;92.80
50969;DHT22;36982;51.474;7.228;2022-07-15T06:23:01;23.30;92.00
50969;DHT22;36982;51.474;7.228;2022-07-15T06:25:27;23.20;91.80
50969;DHT22;36982;51.474;7.228;2022-07-15T06:27:53;23.40;91.10
50969;DHT22;36982;51.474;7.228;2022-07-15T06:30:18;23.30;90.30
50969;DHT22;36982;51.474;7.228;2022-07-15T06:32:44;22.50;90.80
50969;DHT22;36982;51.474;7.228;2022-07-15T06:35:10;22.00;91.40
50969;DHT22;36982;51.474;7.228;2022-07-15T06:37:37;22.00;91.00
50969;DHT22;36982;51.474;7.228;2022-07-15T06:40:03;21.50;91.80
50969;DHT22;36982;51.474;7.228;2022-07-15T06:42:28;21.30;91.90
50969;DHT22;36982;51.474;7.228;2022-07-15T06:44:54;21.10;92.50
50969;DHT22;36982;51.474;7.228;2022-07-15T06:50:08;21.60;92.50
50969;DHT22;36982;51.474;7.228;2022-07-15T06:52:34;21.90;92.30
50969;DHT22;36982;51.474;7.228;2022-07-15T06:55:01;22.60;91.20
50969;DHT22;36982;51.474;7.228;2022-07-15T06:57:26;22.90;90.40
50969;DHT22;36982;51.474;7.228;2022-07-15T06:59:53;21.60;90.90
50969;DHT22;36982;51.474;7.228;2022-07-15T07:02:19;20.20;93.30
50969;DHT22;36982;51.474;7.228;2022-07-15T07:04:45;20.20;92.80
50969;DHT22;36982;51.474;7.228;2022-07-15T07:07:10;19.60;93.30
50969;DHT22;36982;51.474;7.228;2022-07-15T07:09:36;19.40;93.10
50969;DHT22;36982;51.474;7.228;2022-07-15T07:12:02;19.40;93.80
50969;DHT22;36982;51.474;7.228;2022-07-15T07:14:29;18.90;94.50
50969;DHT22;36982;51.474;7.228;2022-07-15T07:16:54;18.60;95.00
50969;DHT22;36982;51.474;7.228;2022-07-15T07:19:20;18.80;95.40
50969;DHT22;36982;51.474;7.228;2022-07-15T07:21:46;18.80;95.70
50969;DHT22;36982;51.474;7.228;2022-07-15T07:27:04;18.10;96.00
50969;DHT22;36982;51.474;7.228;2022-07-15T07:29:31;17.90;96.10
50969;DHT22;36982;51.474;7.228;2022-07-15T07:31:56;18.00;96.30
50969;DHT22;36982;51.474;7.228;2022-07-15T07:34:22;17.90;96.30
50969;DHT22;36982;51.474;7.228;2022-07-15T07:36:48;17.70;96.80
50969;DHT22;36982;51.474;7.228;2022-07-15T07:39:14;17.90;96.80
50969;DHT22;36982;51.474;7.228;2022-07-15T07:41:40;18.20;96.90
50969;DHT22;36982;51.474;7.228;2022-07-15T07:44:06;18.10;96.30
50969;DHT22;36982;51.474;7.228;2022-07-15T07:46:33;18.30;95.60
50969;DHT22;36982;51.474;7.228;2022-07-15T07:48:58;18.20;95.90
50969;DHT22;36982;51.474;7.228;2022-07-15T07:51:24;18.10;96.00
50969;DHT22;36982;51.474;7.228;2022-07-15T07:53:50;18.00;96.40
50969;DHT22;36982;51.474;7.228;2022-07-15T07:56:15;18.00;96.70
50969;DHT22;36982;51.474;7.228;2022-07-15T07:58:41;17.90;96.60
50969;DHT22;36982;51.474;7.228;2022-07-15T08:01:07;17.80;96.30
50969;DHT22;36982;51.474;7.228;2022-07-15T08:03:33;17.40;97.20
50969;DHT22;36982;51.474;7.228;2022-07-15T08:05:59;17.20;97.10
50969;DHT22;36982;51.474;7.228;2022-07-15T08:08:25;17.00;97.50
50969;DHT22;36982;51.474;7.228;2022-07-15T08:10:55;16.90;97.70
50969;DHT22;36982;51.474;7.228;2022-07-15T08:13:23;17.10;97.60
50969;DHT22;36982;51.474;7.228;2022-07-15T08:15:49;17.00;97.80
50969;DHT22;36982;51.474;7.228;2022-07-15T08:18:15;17.00;97.90
50969;DHT22;36982;51.474;7.228;2022-07-15T08:20:42;17.20;98.20
50969;DHT22;36982;51.474;7.228;2022-07-15T08:23:07;17.30;97.80
50969;DHT22;36982;51.474;7.228;2022-07-15T08:25:36;17.50;97.80
50969;DHT22;36982;51.474;7.228;2022-07-15T08:28:02;17.60;97.40
50969;DHT22;36982;51.474;7.228;2022-07-15T08:30:29;17.80;96.70
50969;DHT22;36982;51.474;7.228;2022-07-15T08:32:55;17.90;96.70
50969;DHT22;36982;51.474;7.228;2022-07-15T08:35:21;18.10;97.00
50969;DHT22;36982;51.474;7.228;2022-07-15T08:37:47;18.40;96.50
50969;DHT22;36982;51.474;7.228;2022-07-15T08:40:14;18.60;96.20
50969;DHT22;36982;51.474;7.228;2022-07-15T08:42:41;18.80;95.90
50969;DHT22;36982;51.474;7.228;2022-07-15T08:45:10;18.50;94.80
50969;DHT22;36982;51.474;7.228;2022-07-15T08:47:38;18.40;95.40
50969;DHT22;36982;51.474;7.228;2022-07-15T08:50:04;18.50;95.10
50969;DHT22;36982;51.474;7.228;2022-07-15T08:52:33;18.60;95.30
50969;DHT22;36982;51.474;7.228;2022-07-15T08:54:59;18.80;95.00
50969;DHT22;36982;51.474;7.228;2022-07-15T08:57:25;18.90;95.20
50969;DHT22;36982;51.474;7.228;2022-07-15T08:59:52;19.10;94.80
50969;DHT22;36982;51.474;7.228;2022-07-15T09:02:21;19.30;94.50
50969;DHT22;36982;51.474;7.228;2022-07-15T09:05:16;19.30;95.00
50969;DHT22;36982;51.474;7.228;2022-07-15T09:10:22;19.40;95.10
50969;DHT22;36982;51.474;7.228;2022-07-15T09:12:52;19.60;94.80
50969;DHT22;36982;51.474;7.228;2022-07-15T09:15:35;19.70;94.70
50969;DHT22;36982;51.474;7.228;2022-07-15T09:18:13;19.70;94.30
50969;DHT22;36982;51.474;7.228;2022-07-15T09:20:41;19.70;94.30
50969;DHT22;36982;51.474;7.228;2022-07-15T09:23:07;19.80;94.00
50969;DHT22;36982;51.474;7.228;2022-07-15T09:25:33;19.60;92.80
50969;DHT22;36982;51.474;7.228;2022-07-15T09:28:01;19.60;93.20
50969;DHT22;36982;51.474;7.228;2022-07-15T09:33:31;19.50;93.50
50969;DHT22;36982;51.474;7.228;2022-07-15T09:36:18;19.40;93.50
50969;DHT22;36982;51.474;7.228;2022-07-15T09:38:55;19.30;93.30
50969;DHT22;36982;51.474;7.228;2022-07-15T09:41:42;19.20;93.60
50969;DHT22;36982;51.474;7.228;2022-07-15T09:44:22;19.00;94.00
50969;DHT22;36982;51.474;7.228;2022-07-15T09:46:57;19.10;93.80
50969;DHT22;36982;51.474;7.228;2022-07-15T09:52:00;18.90;93.90
50969;DHT22;36982;51.474;7.228;2022-07-15T09:54:53;19.00;94.70
50969;DHT22;36982;51.474;7.228;2022-07-15T09:57:19;19.50;94.50
50969;DHT22;36982;51.474;7.228;2022-07-15T09:59:46;19.80;93.70
50969;DHT22;36982;51.474;7.228;2022-07-15T10:02:12;19.90;92.70
50969;DHT22;36982;51.474;7.228;2022-07-15T10:04:39;19.80;92.50
50969;DHT22;36982;51.474;7.228;2022-07-15T10:07:06;19.90;92.70
50969;DHT22;36982;51.474;7.228;2022-07-15T10:09:34;20.00;92.40
50969;DHT22;36982;51.474;7.228;2022-07-15T10:12:09;20.20;92.30
50969;DHT22;36982;51.474;7.228;2022-07-15T10:31:21;20.60;92.10
50969;DHT22;36982;51.474;7.228;2022-07-15T10:39:13;20.90;92.40
50969;DHT22;36982;51.474;7.228;2022-07-15T10:44:14;21.00;91.40
50969;DHT22;36982;51.474;7.228;2022-07-15T10:46:39;21.10;91.80
50969;DHT22;36982;51.474;7.228;2022-07-15T10:56:33;20.70;91.90
50969;DHT22;36982;51.474;7.228;2022-07-15T10:59:13;20.90;91.90
50969;DHT22;36982;51.474;7.228;2022-07-15T11:01:43;20.90;92.20
50969;DHT22;36982;51.474;7.228;2022-07-15T11:04:22;21.10;91.50
50969;DHT22;36982;51.474;7.228;2022-07-15T11:15:00;21.60;91.10
50969;DHT22;36982;51.474;7.228;2022-07-15T11:20:12;21.20;91.40
50969;DHT22;36982;51.474;7.228;2022-07-15T11:22:41;21.00;91.30
50969;DHT22;36982;51.474;7.228;2022-07-15T11:25:17;20.70;91.90
50969;DHT22;36982;51.474;7.228;2022-07-15T11:27:55;20.50;91.70
50969;DHT22;36982;51.474;7.228;2022-07-15T11:30:21;20.50;90.90
50969;DHT22;36982;51.474;7.228;2022-07-15T11:32:55;20.60;91.30
50969;DHT22;36982;51.474;7.228;2022-07-15T11:35:21;20.80;91.50
50969;DHT22;36982;51.474;7.228;2022-07-15T11:37:47;20.80;91.30
50969;DHT22;36982;51.474;7.228;2022-07-15T11:40:17;20.60;91.50
50969;DHT22;36982;51.474;7.228;2022-07-15T11:43:03;20.70;91.30
50969;DHT22;36982;51.474;7.228;2022-07-15T11:45:48;20.60;91.00
50969;DHT22;36982;51.474;7.228;2022-07-15T11:48:14;20.00;91.00
50969;DHT22;36982;51.474;7.228;2022-07-15T11:50:52;19.80;91.90
50969;DHT22;36982;51.474;7.228;2022-07-15T11:53:18;20.00;92.30
50969;DHT22;36982;51.474;7.228;2022-07-15T11:56:02;20.10;92.00
50969;DHT22;36982;51.474;7.228;2022-07-15T12:01:10;20.50;91.70
50969;DHT22;36982;51.474;7.228;2022-07-15T12:03:45;20.70;91.60
50969;DHT22;36982;51.474;7.228;2022-07-15T12:08:41;20.70;91.10
50969;DHT22;36982;51.474;7.228;2022-07-15T12:11:15;20.80;90.80
50969;DHT22;36982;51.474;7.228;2022-07-15T12:16:21;20.50;90.30
50969;DHT22;36982;51.474;7.228;2022-07-15T12:18:48;20.00;90.50
50969;DHT22;36982;51.474;7.228;2022-07-15T12:21:14;19.80;90.80
50969;DHT22;36982;51.474;7.228;2022-07-15T12:23:40;19.60;91.10
50969;DHT22;36982;51.474;7.228;2022-07-15T12:26:09;19.60;91.30
50969;DHT22;36982;51.474;7.228;2022-07-15T12:28:36;19.80;91.50
50969;DHT22;36982;51.474;7.228;2022-07-15T12:31:03;19.90;91.50
50969;DHT22;36982;51.474;7.228;2022-07-15T12:33:36;20.20;90.90
50969;DHT22;36982;51.474;7.228;2022-07-15T12:36:17;20.30;91.00
50969;DHT22;36982;51.474;7.228;2022-07-15T12:38:44;20.60;90.80
50969;DHT22;36982;51.474;7.228;2022-07-15T12:41:22;20.90;89.40
50969;DHT22;36982;51.474;7.228;2022-07-15T12:43:54;20.90;90.10
50969;DHT22;36982;51.474;7.228;2022-07-15T12:46:21;21.10;89.70
50969;DHT22;36982;51.474;7.228;2022-07-15T12:49:06;21.00;88.80
50969;DHT22;36982;51.474;7.228;2022-07-15T12:51:33;20.90;89.30
50969;DHT22;36982;51.474;7.228;2022-07-15T12:54:04;21.10;89.30
50969;DHT22;36982;51.474;7.228;2022-07-15T12:56:30;21.20;88.80
50969;DHT22;36982;51.474;7.228;2022-07-15T12:58:56;21.10;87.10
50969;DHT22;36982;51.474;7.228;2022-07-15T13:01:21;21.10;87.30
50969;DHT22;36982;51.474;7.228;2022-07-15T13:03:47;21.10;86.90
50969;DHT22;36982;51.474;7.228;2022-07-15T13:06:12;21.10;87.20
50969;DHT22;36982;51.474;7.228;2022-07-15T13:08:40;21.00;87.80
50969;DHT22;36982;51.474;7.228;2022-07-15T13:11:07;20.90;88.30
50969;DHT22;36982;51.474;7.228;2022-07-15T13:13:36;20.90;87.30
50969;DHT22;36982;51.474;7.228;2022-07-15T13:16:03;20.80;87.20
50969;DHT22;36982;51.474;7.228;2022-07-15T13:18:30;20.70;86.20
50969;DHT22;36982;51.474;7.228;2022-07-15T13:20:56;20.70;87.00
50969;DHT22;36982;51.474;7.228;2022-07-15T13:23:23;20.70;87.60
50969;DHT22;36982;51.474;7.228;2022-07-15T13:25:49;20.90;87.70
50969;DHT22;36982;51.474;7.228;2022-07-15T13:28:16;21.00;87.50
50969;DHT22;36982;51.474;7.228;2022-07-15T13:30:42;21.30;87.70
50969;DHT22;36982;51.474;7.228;2022-07-15T13:33:08;21.10;88.30
50969;DHT22;36982;51.474;7.228;2022-07-15T13:35:34;21.20;86.50
50969;DHT22;36982;51.474;7.228;2022-07-15T13:37:59;21.30;87.30
50969;DHT22;36982;51.474;7.228;2022-07-15T13:40:25;21.40;86.70
50969;DHT22;36982;51.474;7.228;2022-07-15T13:42:50;21.30;86.40
50969;DHT22;36982;51.474;7.228;2022-07-15T13:45:17;21.60;86.80
50969;DHT22;36982;51.474;7.228;2022-07-15T13:47:43;21.80;84.40
50969;DHT22;36982;51.474;7.228;2022-07-15T13:50:09;21.80;85.10
50969;DHT22;36982;51.474;7.228;2022-07-15T13:52:55;21.80;84.80
50969;DHT22;36982;51.474;7.228;2022-07-15T13:55:22;21.50;86.20
50969;DHT22;36982;51.474;7.228;2022-07-15T13:57:48;21.20;85.40
50969;DHT22;36982;51.474;7.228;2022-07-15T14:00:16;21.00;86.20
50969;DHT22;36982;51.474;7.228;2022-07-15T14:02:44;21.20;85.80
50969;DHT22;36982;51.474;7.228;2022-07-15T14:05:11;21.00;86.60
50969;DHT22;36982;51.474;7.228;2022-07-15T14:07:37;21.20;86.20
50969;DHT22;36982;51.474;7.228;2022-07-15T14:10:03;21.50;85.60
50969;DHT22;36982;51.474;7.228;2022-07-15T14:12:29;21.60;86.00
50969;DHT22;36982;51.474;7.228;2022-07-15T14:14:55;21.70;86.20
50969;DHT22;36982;51.474;7.228;2022-07-15T14:17:20;21.80;85.90
50969;DHT22;36982;51.474;7.228;2022-07-15T14:19:46;21.80;85.70
50969;DHT22;36982;51.474;7.228;2022-07-15T14:22:12;21.80;85.20
50969;DHT22;36982;51.474;7.228;2022-07-15T14:24:37;21.80;84.10
50969;DHT22;36982;51.474;7.228;2022-07-15T14:27:03;21.90;85.00
50969;DHT22;36982;51.474;7.228;2022-07-15T14:29:29;22.00;85.50
50969;DHT22;36982;51.474;7.228;2022-07-15T14:31:55;22.20;84.20
50969;DHT22;36982;51.474;7.228;2022-07-15T14:34:20;22.30;84.90
50969;DHT22;36982;51.474;7.228;2022-07-15T14:36:46;22.20;84.80
50969;DHT22;36982;51.474;7.228;2022-07-15T14:39:12;22.10;84.00
50969;DHT22;36982;51.474;7.228;2022-07-15T14:41:38;22.10;84.40
50969;DHT22;36982;51.474;7.228;2022-07-15T14:44:04;22.00;84.90
50969;DHT22;36982;51.474;7.228;2022-07-15T14:46:30;21.70;84.40
50969;DHT22;36982;51.474;7.228;2022-07-15T14:48:56;21.40;85.80
50969;DHT22;36982;51.474;7.228;2022-07-15T14:51:21;21.30;85.80
50969;DHT22;36982;51.474;7.228;2022-07-15T14:53:47;21.00;86.10
50969;DHT22;36982;51.474;7.228;2022-07-15T14:56:13;20.90;85.60
50969;DHT22;36982;51.474;7.228;2022-07-15T14:58:39;20.80;86.00
50969;DHT22;36982;51.474;7.228;2022-07-15T15:01:04;20.90;86.50
50969;DHT22;36982;51.474;7.228;2022-07-15T15:03:30;21.00;86.00
50969;DHT22;36982;51.474;7.228;2022-07-15T15:05:56;21.00;87.50
50969;DHT22;36982;51.474;7.228;2022-07-15T15:08:24;21.00;86.00
50969;DHT22;36982;51.474;7.228;2022-07-15T15:10:50;21.20;86.30
50969;DHT22;36982;51.474;7.228;2022-07-15T15:13:15;21.20;85.70
50969;DHT22;36982;51.474;7.228;2022-07-15T15:15:41;21.20;85.90
50969;DHT22;36982;51.474;7.228;2022-07-15T15:18:07;21.20;86.40
50969;DHT22;36982;51.474;7.228;2022-07-15T15:20:33;21.40;87.10
50969;DHT22;36982;51.474;7.228;2022-07-15T15:22:59;21.50;86.50
50969;DHT22;36982;51.474;7.228;2022-07-15T15:25:24;21.60;85.70
50969;DHT22;36982;51.474;7.228;2022-07-15T15:28:09;21.70;85.60
50969;DHT22;36982;51.474;7.228;2022-07-15T15:30:35;21.80;84.50
50969;DHT22;36982;51.474;7.228;2022-07-15T15:33:00;21.90;84.90
50969;DHT22;36982;51.474;7.228;2022-07-15T15:35:26;22.00;84.70
50969;DHT22;36982;51.474;7.228;2022-07-15T15:37:52;21.90;84.70
50969;DHT22;36982;51.474;7.228;2022-07-15T15:40:18;21.90;86.20
50969;DHT22;36982;51.474;7.228;2022-07-15T15:42:44;21.90;84.60
50969;DHT22;36982;51.474;7.228;2022-07-15T15:45:10;21.80;84.40
50969;DHT22;36982;51.474;7.228;2022-07-15T15:47:35;21.80;84.40
50969;DHT22;36982;51.474;7.228;2022-07-15T15:50:01;21.80;84.90
50969;DHT22;36982;51.474;7.228;2022-07-15T15:52:27;22.00;84.90
50969;DHT22;36982;51.474;7.228;2022-07-15T15:54:53;22.10;83.80
50969;DHT22;36982;51.474;7.228;2022-07-15T15:57:18;22.10;83.30
50969;DHT22;36982;51.474;7.228;2022-07-15T15:59:44;22.10;83.90
50969;DHT22;36982;51.474;7.228;2022-07-15T16:02:10;22.20;84.30
50969;DHT22;36982;51.474;7.228;2022-07-15T16:04:36;22.40;85.00
50969;DHT22;36982;51.474;7.228;2022-07-15T16:07:02;22.50;83.50
50969;DHT22;36982;51.474;7.228;2022-07-15T16:09:28;22.60;83.80
50969;DHT22;36982;51.474;7.228;2022-07-15T16:11:54;22.50;84.00
50969;DHT22;36982;51.474;7.228;2022-07-15T16:14:20;22.50;83.70
50969;DHT22;36982;51.474;7.228;2022-07-15T16:16:45;22.50;83.70
50969;DHT22;36982;51.474;7.228;2022-07-15T16:19:11;22.50;84.30
50969;DHT22;36982;51.474;7.228;2022-07-15T16:21:36;22.50;84.00
50969;DHT22;36982;51.474;7.228;2022-07-15T16:24:21;22.50;84.80
50969;DHT22;36982;51.474;7.228;2022-07-15T16:26:46;22.50;84.60
50969;DHT22;36982;51.474;7.228;2022-07-15T16:29:12;22.50;84.60
50969;DHT22;36982;51.474;7.228;2022-07-15T16:31:37;22.30;84.80
50969;DHT22;36982;51.474;7.228;2022-07-15T16:34:03;22.20;84.70
50969;DHT22;36982;51.474;7.228;2022-07-15T16:36:29;22.10;85.00